Time;durP1;ratioP1;P1;durP2;ratioP2;P2;SDS_P1;SDS_P2;PMS_P1;PMS_P2;Temp;Humidity;BMP_temperature;BMP_pressure;BME280_temperature;BME280_humidity;BME280_pressure;Samples;Min_cycle;Max_cycle;Signal;HPM_P1;HPM_P2
2022/06/08 00:01:12;;;;;;;59.07;3.07;;;;;;;;;;5093010;28;20520;-72
2022/06/08 00:03:41;;;;;;;58.87;3.30;;;;;;;;;;5092896;28;20455;-73
2022/06/08 00:06:08;;;;;;;61.03;3.63;;;;;;;;;;5092929;28;20545;-72
2022/06/08 00:08:35;;;;;;;58.73;3.40;;;;;;;;;;5092585;28;20483;-72
2022/06/08 00:11:03;;;;;;;60.93;3.23;;;;;;;;;;5092690;28;20485;-73
2022/06/08 00:13:31;;;;;;;60.33;3.10;;;;;;;;;;5092841;28;20456;-73
2022/06/08 00:15:59;;;;;;;59.87;3.07;;;;;;;;;;5092819;28;20459;-73
2022/06/08 00:18:26;;;;;;;60.67;3.47;;;;;;;;;;5092099;28;20483;-72
2022/06/08 00:20:54;;;;;;;59.47;3.20;;;;;;;;;;5092630;28;20444;-72
2022/06/08 00:23:21;;;;;;;59.40;3.23;;;;;;;;;;5092485;28;20444;-72
2022/06/08 00:25:49;;;;;;;58.73;3.20;;;;;;;;;;5092699;28;20475;-72
2022/06/08 00:28:16;;;;;;;59.10;3.33;;;;;;;;;;5091905;28;20476;-73
2022/06/08 00:30:45;;;;;;;60.37;3.33;;;;;;;;;;5092531;28;20458;-73
2022/06/08 00:33:12;;;;;;;58.83;3.07;;;;;;;;;;5092333;28;20510;-73
2022/06/08 00:35:39;;;;;;;59.17;3.33;;;;;;;;;;5092311;28;20823;-73
2022/06/08 00:38:06;;;;;;;59.10;3.10;;;;;;;;;;5091887;28;20521;-73
2022/06/08 00:40:39;;;;;;;59.30;3.20;;;;;;;;;;5092809;28;20803;-73
2022/06/08 00:43:06;;;;;;;60.67;3.10;;;;;;;;;;5092205;28;20526;-73
2022/06/08 00:45:34;;;;;;;60.27;3.27;;;;;;;;;;5092161;28;21020;-74
2022/06/08 00:48:04;;;;;;;59.50;3.53;;;;;;;;;;5091495;28;20447;-73
2022/06/08 00:50:32;;;;;;;59.27;3.13;;;;;;;;;;5092254;28;20936;-73
2022/06/08 00:53:00;;;;;;;59.00;3.50;;;;;;;;;;5092261;28;20896;-73
2022/06/08 00:55:29;;;;;;;59.50;3.37;;;;;;;;;;5092497;28;20875;-73
2022/06/08 00:57:58;;;;;;;59.60;3.40;;;;;;;;;;5091520;28;20448;-73
2022/06/08 01:00:27;;;;;;;61.40;3.30;;;;;;;;;;5091413;28;20823;-73
2022/06/08 01:02:54;;;;;;;59.30;3.43;;;;;;;;;;5092025;28;20491;-75
2022/06/08 01:05:25;;;;;;;59.17;3.40;;;;;;;;;;5092188;28;20504;-73
2022/06/08 01:07:53;;;;;;;59.97;3.67;;;;;;;;;;5091351;28;20458;-73
2022/06/08 01:10:23;;;;;;;59.70;3.33;;;;;;;;;;5091952;28;20538;-73
2022/06/08 01:12:51;;;;;;;59.17;3.20;;;;;;;;;;5091866;28;20474;-73
2022/06/08 01:15:21;;;;;;;59.30;3.43;;;;;;;;;;5091824;28;20514;-73
2022/06/08 01:17:48;;;;;;;58.87;3.20;;;;;;;;;;5091580;28;20441;-73
2022/06/08 01:20:16;;;;;;;59.60;3.43;;;;;;;;;;5092016;28;20838;-73
2022/06/08 01:22:44;;;;;;;59.10;3.27;;;;;;;;;;5091604;28;21071;-75
2022/06/08 01:25:15;;;;;;;59.30;3.37;;;;;;;;;;5091848;28;20886;-73
2022/06/08 01:27:48;;;;;;;59.30;3.47;;;;;;;;;;5090999;28;20984;-73
2022/06/08 01:30:17;;;;;;;59.00;3.33;;;;;;;;;;5091970;28;20457;-74
2022/06/08 01:33:02;;;;;;;60.17;3.20;;;;;;;;;;5091764;28;20836;-73
2022/06/08 01:35:33;;;;;;;60.10;3.90;;;;;;;;;;5088091;28;20442;-74
2022/06/08 01:38:06;;;;;;;59.37;3.30;;;;;;;;;;5091149;28;20459;-73
2022/06/08 01:40:55;;;;;;;59.20;3.37;;;;;;;;;;5091793;28;20447;-74
2022/06/08 01:43:26;;;;;;;59.20;3.40;;;;;;;;;;5091615;28;20492;-73
2022/06/08 01:46:10;;;;;;;59.10;3.50;;;;;;;;;;5091620;28;20455;-73
2022/06/08 01:48:49;;;;;;;61.70;3.60;;;;;;;;;;5091179;28;20458;-73
2022/06/08 01:51:23;;;;;;;60.77;3.57;;;;;;;;;;5091540;28;20470;-74
2022/06/08 01:53:55;;;;;;;60.10;3.63;;;;;;;;;;5091420;28;20458;-74
2022/06/08 01:56:26;;;;;;;59.97;3.57;;;;;;;;;;5091914;28;20456;-74
2022/06/08 01:58:59;;;;;;;60.37;3.80;;;;;;;;;;5090877;28;20943;-73
2022/06/08 02:01:28;;;;;;;59.27;3.40;;;;;;;;;;5091445;28;20558;-73
2022/06/08 02:04:02;;;;;;;59.77;3.40;;;;;;;;;;5091358;28;20943;-73
2022/06/08 02:06:34;;;;;;;59.40;3.13;;;;;;;;;;5091477;28;20453;-73
2022/06/08 02:09:05;;;;;;;59.67;3.57;;;;;;;;;;5090450;28;20533;-73
2022/06/08 02:11:36;;;;;;;61.37;4.03;;;;;;;;;;5093371;28;20482;-75
2022/06/08 02:14:05;;;;;;;58.90;3.20;;;;;;;;;;5095254;28;20543;-73
2022/06/08 02:16:35;;;;;;;60.00;3.63;;;;;;;;;;5095211;28;20537;-75
2022/06/08 02:19:05;;;;;;;65.90;4.33;;;;;;;;;;5094314;28;20453;-74
2022/06/08 02:21:34;;;;;;;59.40;3.23;;;;;;;;;;5095058;28;20481;-73
2022/06/08 02:24:05;;;;;;;59.57;3.30;;;;;;;;;;5094944;28;20448;-74
2022/06/08 02:26:36;;;;;;;59.40;3.40;;;;;;;;;;5095262;28;20428;-74
2022/06/08 02:29:05;;;;;;;59.47;3.27;;;;;;;;;;5094395;28;20462;-73
2022/06/08 02:31:35;;;;;;;59.40;3.60;;;;;;;;;;5094714;28;20473;-73
2022/06/08 02:36:50;;;;;;;62.03;3.50;;;;;;;;;;5094725;28;20946;-73
2022/06/08 02:39:21;;;;;;;60.33;3.37;;;;;;;;;;5094157;28;20461;-74
2022/06/08 02:41:51;;;;;;;59.30;3.60;;;;;;;;;;5094493;28;20487;-73
2022/06/08 02:44:21;;;;;;;59.00;3.13;;;;;;;;;;5094386;28;20888;-73
2022/06/08 02:46:50;;;;;;;58.80;2.90;;;;;;;;;;5094954;28;20448;-73
2022/06/08 02:49:17;;;;;;;59.17;3.60;;;;;;;;;;5093929;28;20443;-75
2022/06/08 02:51:46;;;;;;;59.17;3.23;;;;;;;;;;5095332;28;20472;-74
2022/06/08 02:54:15;;;;;;;59.37;3.67;;;;;;;;;;5094669;28;20443;-74
2022/06/08 02:56:48;;;;;;;59.17;3.53;;;;;;;;;;5094219;28;20454;-73
2022/06/08 02:59:19;;;;;;;60.63;3.73;;;;;;;;;;5094033;28;20491;-74
2022/06/08 03:01:47;;;;;;;58.87;3.20;;;;;;;;;;5094329;28;20524;-74
2022/06/08 03:04:17;;;;;;;59.67;3.60;;;;;;;;;;5094554;28;20446;-73
2022/06/08 03:06:46;;;;;;;59.50;3.60;;;;;;;;;;5094140;28;20950;-74
2022/06/08 03:09:15;;;;;;;59.07;3.60;;;;;;;;;;5093683;28;20453;-73
2022/06/08 03:11:45;;;;;;;59.60;3.90;;;;;;;;;;5094288;28;20471;-75
2022/06/08 03:14:15;;;;;;;59.53;3.57;;;;;;;;;;5094317;28;20443;-74
2022/06/08 03:16:52;;;;;;;59.37;3.50;;;;;;;;;;5094167;28;20453;-73
2022/06/08 03:19:19;;;;;;;60.23;3.63;;;;;;;;;;5093785;28;20430;-73
2022/06/08 03:21:47;;;;;;;59.93;3.40;;;;;;;;;;5093706;28;20474;-73
2022/06/08 03:24:14;;;;;;;61.60;3.30;;;;;;;;;;5093610;28;21052;-73
2022/06/08 03:26:42;;;;;;;59.20;3.50;;;;;;;;;;5093983;28;20457;-73
2022/06/08 03:29:09;;;;;;;58.83;3.10;;;;;;;;;;5093297;28;20567;-73
2022/06/08 03:31:38;;;;;;;59.67;3.90;;;;;;;;;;5093669;28;20558;-74
2022/06/08 03:34:05;;;;;;;59.07;3.50;;;;;;;;;;5093431;28;20460;-73
2022/06/08 03:36:32;;;;;;;59.93;3.80;;;;;;;;;;5093685;28;20454;-74
2022/06/08 03:38:59;;;;;;;59.07;3.10;;;;;;;;;;5092873;28;20465;-73
2022/06/08 03:41:26;;;;;;;59.20;3.40;;;;;;;;;;5093375;28;20472;-73
2022/06/08 03:43:53;;;;;;;58.90;3.43;;;;;;;;;;5093611;28;20478;-73
2022/06/08 03:46:21;;;;;;;59.30;3.50;;;;;;;;;;5093307;28;20935;-73
2022/06/08 03:48:51;;;;;;;59.53;3.27;;;;;;;;;;5092799;28;20457;-73
2022/06/08 03:51:18;;;;;;;59.33;3.43;;;;;;;;;;5093508;28;20470;-73
2022/06/08 03:53:47;;;;;;;59.30;3.40;;;;;;;;;;5093007;28;20957;-73
2022/06/08 03:56:15;;;;;;;59.17;3.47;;;;;;;;;;5093589;28;20819;-73
2022/06/08 03:58:43;;;;;;;61.93;3.80;;;;;;;;;;5092717;28;20538;-73
2022/06/08 04:01:10;;;;;;;59.43;3.80;;;;;;;;;;5092950;28;20450;-73
2022/06/08 04:03:37;;;;;;;60.40;4.13;;;;;;;;;;5092857;28;20856;-74
2022/06/08 04:06:06;;;;;;;59.80;3.80;;;;;;;;;;5092862;28;20493;-73
2022/06/08 04:08:33;;;;;;;58.90;3.40;;;;;;;;;;5092458;28;20956;-73
2022/06/08 04:11:00;;;;;;;59.80;3.70;;;;;;;;;;5092883;28;20458;-73
2022/06/08 04:13:27;;;;;;;59.20;3.37;;;;;;;;;;5092775;28;20533;-74
2022/06/08 04:15:54;;;;;;;59.17;3.50;;;;;;;;;;5092796;28;20442;-73
2022/06/08 04:18:23;;;;;;;59.70;3.50;;;;;;;;;;5092345;28;20477;-74
2022/06/08 04:20:53;;;;;;;59.73;3.57;;;;;;;;;;5092841;28;20455;-73
2022/06/08 04:23:22;;;;;;;64.13;4.17;;;;;;;;;;5092570;28;20494;-73
2022/06/08 04:25:50;;;;;;;59.10;3.37;;;;;;;;;;5092779;28;20754;-73
2022/06/08 04:28:17;;;;;;;59.50;3.37;;;;;;;;;;5091912;28;20799;-73
2022/06/08 04:30:44;;;;;;;60.80;3.73;;;;;;;;;;5092443;28;20990;-74
2022/06/08 04:33:12;;;;;;;59.60;3.30;;;;;;;;;;5092357;28;20465;-73
2022/06/08 04:35:39;;;;;;;59.60;3.57;;;;;;;;;;5091716;28;20543;-73
2022/06/08 04:38:06;;;;;;;60.07;3.33;;;;;;;;;;5091686;28;20463;-74
2022/06/08 04:40:35;;;;;;;59.50;3.30;;;;;;;;;;5092368;28;20497;-73
2022/06/08 04:43:02;;;;;;;58.97;3.53;;;;;;;;;;5092116;28;20503;-73
2022/06/08 04:45:29;;;;;;;59.20;3.30;;;;;;;;;;5092610;28;20452;-73
2022/06/08 04:47:57;;;;;;;59.20;3.50;;;;;;;;;;5091837;28;20449;-73
2022/06/08 04:50:25;;;;;;;59.47;3.97;;;;;;;;;;5092300;28;20449;-73
2022/06/08 04:52:52;;;;;;;60.23;3.47;;;;;;;;;;5092189;28;20537;-75
2022/06/08 04:55:20;;;;;;;59.27;3.60;;;;;;;;;;5092262;28;20451;-74
2022/06/08 04:57:48;;;;;;;61.80;3.60;;;;;;;;;;5091381;28;20502;-73
2022/06/08 05:00:17;;;;;;;59.00;3.57;;;;;;;;;;5092393;28;20455;-73
2022/06/08 05:02:44;;;;;;;60.63;4.17;;;;;;;;;;5091821;28;20488;-73
2022/06/08 05:05:12;;;;;;;59.90;3.73;;;;;;;;;;5091991;28;20940;-73
2022/06/08 05:07:40;;;;;;;61.50;3.63;;;;;;;;;;5091382;28;20932;-73
2022/06/08 05:10:08;;;;;;;61.97;3.50;;;;;;;;;;5092456;28;20454;-73
2022/06/08 05:12:36;;;;;;;60.77;3.50;;;;;;;;;;5091813;28;20470;-75
2022/06/08 05:15:07;;;;;;;59.80;3.53;;;;;;;;;;5092056;28;20563;-74
2022/06/08 05:17:34;;;;;;;58.80;3.23;;;;;;;;;;5091583;28;20445;-73
2022/06/08 05:20:01;;;;;;;59.13;3.37;;;;;;;;;;5091991;28;20448;-74
2022/06/08 05:22:28;;;;;;;59.10;3.40;;;;;;;;;;5091634;28;20471;-73
2022/06/08 05:24:56;;;;;;;62.00;3.30;;;;;;;;;;5092057;28;20443;-74
2022/06/08 05:27:23;;;;;;;59.73;3.50;;;;;;;;;;5091309;28;20464;-73
2022/06/08 05:29:50;;;;;;;58.97;3.00;;;;;;;;;;5091994;28;20457;-73
2022/06/08 05:32:18;;;;;;;58.97;3.20;;;;;;;;;;5091701;28;20467;-73
2022/06/08 05:34:45;;;;;;;59.40;3.60;;;;;;;;;;5091741;28;20542;-74
2022/06/08 05:37:13;;;;;;;59.70;3.40;;;;;;;;;;5090912;28;20452;-73
2022/06/08 05:39:41;;;;;;;59.10;3.43;;;;;;;;;;5091577;28;20562;-73
2022/06/08 05:42:08;;;;;;;59.40;3.23;;;;;;;;;;5091977;28;20476;-74
2022/06/08 05:44:36;;;;;;;62.47;3.60;;;;;;;;;;5091705;28;20492;-74
2022/06/08 05:47:04;;;;;;;65.63;3.40;;;;;;;;;;5094784;28;20897;-73
2022/06/08 05:49:34;;;;;;;59.37;3.20;;;;;;;;;;5095234;28;20514;-73
2022/06/08 05:52:02;;;;;;;59.27;3.20;;;;;;;;;;5095744;28;20540;-73
2022/06/08 05:54:30;;;;;;;58.57;2.90;;;;;;;;;;5095634;28;20458;-73
2022/06/08 05:56:57;;;;;;;59.00;3.40;;;;;;;;;;5095452;28;21024;-73
2022/06/08 05:59:24;;;;;;;59.10;3.17;;;;;;;;;;5094918;28;20548;-75
2022/06/08 06:01:51;;;;;;;58.57;2.80;;;;;;;;;;5095358;28;20478;-74
2022/06/08 06:04:18;;;;;;;58.63;3.03;;;;;;;;;;5095045;28;20480;-74
2022/06/08 06:06:47;;;;;;;60.77;3.27;;;;;;;;;;5095539;28;20451;-73
2022/06/08 06:09:15;;;;;;;58.80;3.10;;;;;;;;;;5094606;28;20445;-75
2022/06/08 06:11:42;;;;;;;60.47;2.70;;;;;;;;;;5095164;28;20469;-75
2022/06/08 06:14:09;;;;;;;58.67;2.97;;;;;;;;;;5095124;28;20968;-74
2022/06/08 06:16:37;;;;;;;58.70;2.97;;;;;;;;;;5095093;28;20461;-74
2022/06/08 06:19:04;;;;;;;58.87;3.17;;;;;;;;;;5094624;28;20479;-74
2022/06/08 06:21:32;;;;;;;58.53;2.90;;;;;;;;;;5095011;28;20465;-73
2022/06/08 06:24:02;;;;;;;60.90;3.00;;;;;;;;;;5094961;28;20492;-74
2022/06/08 06:26:30;;;;;;;59.17;3.23;;;;;;;;;;5095190;28;20457;-75
2022/06/08 06:28:57;;;;;;;59.30;3.33;;;;;;;;;;5094153;28;20453;-73
2022/06/08 06:31:26;;;;;;;58.27;2.60;;;;;;;;;;5094592;28;20469;-73
2022/06/08 06:33:53;;;;;;;58.90;3.00;;;;;;;;;;5094842;28;20449;-74
2022/06/08 06:36:20;;;;;;;58.57;2.70;;;;;;;;;;5094928;28;20456;-73
2022/06/08 06:38:47;;;;;;;61.63;3.33;;;;;;;;;;5093779;28;20467;-72
2022/06/08 06:41:16;;;;;;;59.87;3.10;;;;;;;;;;5094624;28;20445;-74
2022/06/08 06:43:44;;;;;;;58.80;3.00;;;;;;;;;;5094404;28;20487;-72
2022/06/08 06:46:12;;;;;;;58.90;2.97;;;;;;;;;;5094420;28;20444;-74
2022/06/08 06:48:39;;;;;;;59.67;3.07;;;;;;;;;;5093854;28;20458;-71
2022/06/08 06:51:07;;;;;;;60.27;2.90;;;;;;;;;;5094407;28;20455;-71
2022/06/08 06:53:35;;;;;;;58.87;2.80;;;;;;;;;;5094459;28;20541;-72
2022/06/08 06:56:02;;;;;;;58.93;3.13;;;;;;;;;;5094374;28;20534;-71
2022/06/08 06:58:30;;;;;;;58.80;2.80;;;;;;;;;;5092555;28;20872;-71
2022/06/08 07:00:58;;;;;;;59.17;3.23;;;;;;;;;;5094038;28;20446;-72
2022/06/08 07:03:25;;;;;;;59.10;2.80;;;;;;;;;;5094116;28;20477;-71
2022/06/08 07:05:52;;;;;;;59.20;2.90;;;;;;;;;;5094274;28;20454;-72
2022/06/08 07:08:19;;;;;;;59.20;3.50;;;;;;;;;;5093465;28;20449;-71
2022/06/08 07:11:32;;;;;;;63.67;2.90;;;;;;;;;;5093791;28;20546;-72
2022/06/08 07:13:36;;;;;;;58.37;2.80;;;;;;;;;;5093705;28;20442;-71
2022/06/08 07:16:03;;;;;;;59.40;3.10;;;;;;;;;;5094194;28;20868;-73
2022/06/08 07:18:30;;;;;;;58.57;2.97;;;;;;;;;;5093462;28;20988;-71
2022/06/08 07:20:57;;;;;;;60.63;3.20;;;;;;;;;;5093833;28;20456;-71
2022/06/08 07:23:24;;;;;;;58.60;2.83;;;;;;;;;;5093441;28;21073;-71
2022/06/08 07:25:51;;;;;;;61.00;3.03;;;;;;;;;;5093851;28;20448;-71
2022/06/08 07:28:19;;;;;;;58.17;2.50;;;;;;;;;;5092981;28;20962;-75
2022/06/08 07:30:47;;;;;;;60.63;2.90;;;;;;;;;;5093650;28;20537;-74
2022/06/08 07:33:14;;;;;;;58.70;2.60;;;;;;;;;;5093504;28;21048;-72
2022/06/08 07:35:42;;;;;;;59.07;2.77;;;;;;;;;;5094994;28;20454;-72
2022/06/08 07:38:09;;;;;;;58.13;2.83;;;;;;;;;;5095259;28;20901;-72
2022/06/08 07:40:36;;;;;;;58.20;2.53;;;;;;;;;;5098302;28;20442;-72
2022/06/08 07:43:03;;;;;;;58.90;2.90;;;;;;;;;;5095836;28;20577;-73
2022/06/08 07:45:30;;;;;;;60.23;3.00;;;;;;;;;;5100307;28;20536;-72
2022/06/08 07:50:43;;;;;;;58.57;2.63;;;;;;;;;;5093333;28;20418;-73
2022/06/08 07:53:11;;;;;;;59.47;2.70;;;;;;;;;;5093224;28;20474;-72
2022/06/08 07:55:38;;;;;;;62.60;2.90;;;;;;;;;;5093292;28;20481;-72
2022/06/08 07:58:05;;;;;;;58.20;2.70;;;;;;;;;;5092503;28;20504;-72
2022/06/08 08:00:32;;;;;;;60.50;3.27;;;;;;;;;;5093050;28;20448;-73
2022/06/08 08:03:01;;;;;;;59.40;2.70;;;;;;;;;;5092849;28;20974;-73
2022/06/08 08:05:28;;;;;;;58.80;3.00;;;;;;;;;;5093320;28;20807;-73
2022/06/08 08:07:56;;;;;;;60.90;2.90;;;;;;;;;;5092444;28;20439;-72
2022/06/08 08:10:25;;;;;;;61.10;2.93;;;;;;;;;;5092675;28;20959;-74
2022/06/08 08:12:55;;;;;;;59.07;3.03;;;;;;;;;;5092769;28;20465;-72
2022/06/08 08:15:23;;;;;;;58.80;2.70;;;;;;;;;;5092884;28;20478;-74
2022/06/08 08:17:50;;;;;;;58.67;2.80;;;;;;;;;;5092918;28;20450;-73
2022/06/08 08:20:19;;;;;;;58.70;2.80;;;;;;;;;;5094952;28;20442;-71
2022/06/08 08:22:47;;;;;;;60.33;3.20;;;;;;;;;;5100048;28;20474;-71
2022/06/08 08:25:15;;;;;;;58.70;2.70;;;;;;;;;;5101899;28;20493;-71
2022/06/08 08:27:42;;;;;;;58.27;2.63;;;;;;;;;;5097921;28;20546;-72
2022/06/08 08:30:11;;;;;;;58.37;2.50;;;;;;;;;;5100147;28;20450;-72
2022/06/08 08:32:38;;;;;;;58.70;2.87;;;;;;;;;;5100219;28;20462;-73
2022/06/08 08:35:06;;;;;;;58.53;2.60;;;;;;;;;;5104464;28;20451;-71
2022/06/08 08:37:34;;;;;;;58.27;2.40;;;;;;;;;;5109671;28;20447;-72
2022/06/08 08:40:01;;;;;;;59.87;2.80;;;;;;;;;;5103543;28;20569;-73
2022/06/08 08:42:28;;;;;;;58.03;2.50;;;;;;;;;;5103091;28;20469;-72
2022/06/08 08:44:57;;;;;;;58.17;2.50;;;;;;;;;;5108501;28;20543;-72
2022/06/08 08:47:29;;;;;;;58.40;2.50;;;;;;;;;;5111419;28;20477;-74
2022/06/08 08:49:57;;;;;;;58.10;2.50;;;;;;;;;;5108381;28;20465;-74
2022/06/08 08:52:33;;;;;;;61.07;2.80;;;;;;;;;;5111610;28;20488;-73
2022/06/08 08:55:03;;;;;;;59.10;2.90;;;;;;;;;;5105115;28;20482;-72
2022/06/08 08:57:35;;;;;;;59.30;2.60;;;;;;;;;;5105796;28;20476;-73
2022/06/08 09:00:08;;;;;;;59.97;2.60;;;;;;;;;;5104474;28;20441;-73
2022/06/08 09:05:21;;;;;;;62.70;2.70;;;;;;;;;;5110695;28;20473;-73
2022/06/08 09:07:49;;;;;;;63.73;2.60;;;;;;;;;;5101579;28;20970;-72
2022/06/08 09:10:18;;;;;;;63.00;3.50;;;;;;;;;;5101302;28;20445;-72
2022/06/08 09:12:46;;;;;;;59.50;2.80;;;;;;;;;;5098045;28;20909;-72
2022/06/08 09:15:14;;;;;;;58.37;2.73;;;;;;;;;;5101333;28;20470;-74
2022/06/08 09:17:43;;;;;;;59.77;2.90;;;;;;;;;;5099577;28;20534;-73
2022/06/08 09:20:23;;;;;;;60.57;2.80;;;;;;;;;;5099403;28;20464;-73
2022/06/08 09:22:53;;;;;;;59.00;2.60;;;;;;;;;;5106969;28;20551;-73
2022/06/08 09:25:25;;;;;;;58.80;2.50;;;;;;;;;;5101051;28;20483;-72
2022/06/08 09:27:55;;;;;;;57.20;2.20;;;;;;;;;;5110477;28;20471;-73
2022/06/08 09:30:24;;;;;;;59.87;2.87;;;;;;;;;;5111595;28;20476;-72
2022/06/08 09:32:52;;;;;;;59.17;2.50;;;;;;;;;;5114470;28;20466;-72
2022/06/08 09:35:27;;;;;;;60.00;2.83;;;;;;;;;;5115504;28;20435;-72
2022/06/08 09:37:56;;;;;;;59.37;2.70;;;;;;;;;;5110144;28;20449;-73
2022/06/08 09:40:40;;;;;;;58.47;2.70;;;;;;;;;;5112693;28;20503;-72
2022/06/08 09:43:20;;;;;;;59.40;3.10;;;;;;;;;;5112684;28;20473;-72
2022/06/08 09:45:51;;;;;;;57.87;2.60;;;;;;;;;;5108077;28;21024;-71
2022/06/08 09:51:27;;;;;;;58.17;2.47;;;;;;;;;;5099707;28;20469;-71
2022/06/08 09:53:59;;;;;;;65.30;3.07;;;;;;;;;;5095763;28;20482;-73
2022/06/08 09:56:30;;;;;;;57.90;2.20;;;;;;;;;;5095654;28;20453;-73
2022/06/08 09:59:04;;;;;;;58.37;2.23;;;;;;;;;;5094834;28;20537;-72
2022/06/08 10:01:35;;;;;;;58.57;2.47;;;;;;;;;;5095275;28;20477;-69
2022/06/08 10:04:21;;;;;;;57.97;2.10;;;;;;;;;;5095237;28;20878;-70
2022/06/08 10:06:57;;;;;;;58.60;2.50;;;;;;;;;;5095593;28;20509;-71
2022/06/08 10:09:28;;;;;;;59.27;2.77;;;;;;;;;;5094696;28;20890;-70
2022/06/08 10:12:02;;;;;;;59.37;2.20;;;;;;;;;;5095390;28;20523;-71
2022/06/08 10:14:36;;;;;;;74.20;2.80;;;;;;;;;;5095257;28;20427;-71
2022/06/08 10:17:06;;;;;;;59.60;2.30;;;;;;;;;;5095254;28;20503;-71
2022/06/08 10:19:37;;;;;;;58.60;2.50;;;;;;;;;;5094914;28;20530;-71
2022/06/08 10:22:05;;;;;;;58.83;2.13;;;;;;;;;;5094979;28;20469;-71
2022/06/08 10:24:36;;;;;;;58.40;2.40;;;;;;;;;;5094656;28;20482;-72
2022/06/08 10:27:07;;;;;;;58.10;2.43;;;;;;;;;;5095123;28;20476;-71
2022/06/08 10:29:40;;;;;;;58.60;2.43;;;;;;;;;;5094827;28;20819;-70
2022/06/08 10:32:14;;;;;;;58.60;2.10;;;;;;;;;;5094864;28;20888;-70
2022/06/08 10:34:41;;;;;;;58.03;2.00;;;;;;;;;;5094754;28;20474;-72
2022/06/08 10:37:14;;;;;;;58.10;2.10;;;;;;;;;;5094434;28;20824;-71
2022/06/08 10:39:42;;;;;;;57.80;2.00;;;;;;;;;;5094629;28;20816;-70
2022/06/08 10:45:21;;;;;;;57.57;1.90;;;;;;;;;;5094609;28;20482;-70
2022/06/08 10:47:55;;;;;;;58.77;2.10;;;;;;;;;;5093572;28;20453;-70
2022/06/08 10:50:30;;;;;;;58.90;2.10;;;;;;;;;;5094623;28;20446;-70
2022/06/08 10:54:53;;;;;;;58.47;2.20;;;;;;;;;;5094330;28;20469;-70
2022/06/08 10:55:44;;;;;;;58.00;2.20;;;;;;;;;;5094376;28;20812;-71
2022/06/08 10:58:13;;;;;;;61.30;2.20;;;;;;;;;;5094042;28;20479;-72
2022/06/08 11:00:58;;;;;;;58.20;2.30;;;;;;;;;;5094114;28;20529;-70
2022/06/08 11:03:40;;;;;;;57.53;2.10;;;;;;;;;;5094115;28;20450;-71
2022/06/08 11:06:12;;;;;;;58.90;2.40;;;;;;;;;;5091731;28;20486;-71
2022/06/08 11:08:52;;;;;;;60.47;2.00;;;;;;;;;;5093643;28;20438;-71
2022/06/08 11:11:38;;;;;;;57.47;1.80;;;;;;;;;;5094084;28;20474;-71
2022/06/08 11:14:25;;;;;;;57.80;2.00;;;;;;;;;;5094041;28;20830;-71
2022/06/08 11:16:54;;;;;;;61.33;2.00;;;;;;;;;;5093779;28;20552;-72
2022/06/08 11:19:21;;;;;;;57.37;1.93;;;;;;;;;;5093171;28;20451;-71
2022/06/08 11:21:52;;;;;;;57.47;1.93;;;;;;;;;;5093897;28;20473;-71
2022/06/08 11:24:23;;;;;;;57.57;2.10;;;;;;;;;;5093750;28;20534;-70
2022/06/08 11:26:54;;;;;;;58.00;1.93;;;;;;;;;;5093721;28;20499;-71
2022/06/08 11:29:42;;;;;;;57.73;1.90;;;;;;;;;;5092988;28;20472;-70
2022/06/08 11:32:21;;;;;;;57.27;2.00;;;;;;;;;;5093646;28;20881;-71
2022/06/08 11:34:54;;;;;;;57.43;1.80;;;;;;;;;;5093685;28;20443;-71
2022/06/08 11:37:29;;;;;;;58.10;2.27;;;;;;;;;;5092821;28;20474;-71
2022/06/08 11:40:01;;;;;;;57.30;2.07;;;;;;;;;;5093400;28;20946;-72
2022/06/08 11:42:29;;;;;;;57.43;2.00;;;;;;;;;;5093455;28;20466;-71
2022/06/08 11:44:57;;;;;;;57.33;2.00;;;;;;;;;;5092872;28;20486;-71
2022/06/08 11:47:27;;;;;;;57.60;2.10;;;;;;;;;;5092644;28;20450;-71
2022/06/08 11:49:57;;;;;;;58.50;2.40;;;;;;;;;;5093311;28;20453;-71
2022/06/08 11:52:28;;;;;;;59.37;2.23;;;;;;;;;;5093333;28;20527;-71
2022/06/08 11:55:16;;;;;;;59.20;2.20;;;;;;;;;;5093408;28;20519;-72
2022/06/08 11:57:46;;;;;;;59.03;2.00;;;;;;;;;;5092869;28;20474;-71
2022/06/08 12:00:21;;;;;;;58.83;2.50;;;;;;;;;;5093115;28;20449;-73
2022/06/08 12:02:51;;;;;;;57.70;2.00;;;;;;;;;;5092912;28;20881;-70
2022/06/08 12:05:23;;;;;;;57.97;2.10;;;;;;;;;;5093102;28;20521;-70
2022/06/08 12:07:59;;;;;;;58.00;2.10;;;;;;;;;;5092422;28;20462;-71
2022/06/08 12:10:27;;;;;;;57.83;2.00;;;;;;;;;;5092598;28;20529;-71
2022/06/08 12:12:58;;;;;;;57.73;2.00;;;;;;;;;;5092649;28;20478;-70
2022/06/08 12:15:26;;;;;;;58.27;2.07;;;;;;;;;;5092975;28;20458;-71
2022/06/08 12:17:53;;;;;;;57.77;1.87;;;;;;;;;;5091996;28;20459;-73
2022/06/08 12:20:31;;;;;;;57.80;1.93;;;;;;;;;;5092682;28;20860;-71
2022/06/08 12:23:00;;;;;;;57.80;1.90;;;;;;;;;;5092583;28;20479;-71
2022/06/08 12:25:29;;;;;;;58.00;2.00;;;;;;;;;;5092888;28;20500;-70
2022/06/08 12:27:57;;;;;;;58.83;1.90;;;;;;;;;;5091964;28;20926;-71
2022/06/08 12:30:26;;;;;;;57.60;1.90;;;;;;;;;;5092689;28;20612;-71
2022/06/08 12:32:54;;;;;;;57.67;1.80;;;;;;;;;;5092456;28;20477;-71
2022/06/08 12:35:24;;;;;;;57.17;1.90;;;;;;;;;;5092489;28;20489;-71
2022/06/08 12:38:02;;;;;;;57.33;2.03;;;;;;;;;;5091659;28;20459;-71
2022/06/08 12:40:35;;;;;;;57.50;1.97;;;;;;;;;;5092634;28;20446;-70
2022/06/08 12:43:18;;;;;;;57.37;2.03;;;;;;;;;;5092189;28;20466;-73
2022/06/08 12:45:46;;;;;;;58.00;2.00;;;;;;;;;;5090458;28;20532;-71
2022/06/08 12:48:27;;;;;;;59.10;2.03;;;;;;;;;;5091612;28;20469;-71
2022/06/08 12:50:55;;;;;;;57.87;2.00;;;;;;;;;;5092505;28;20450;-71
2022/06/08 12:53:23;;;;;;;57.77;2.00;;;;;;;;;;5091980;28;20473;-72
2022/06/08 12:55:52;;;;;;;58.10;2.00;;;;;;;;;;5091373;28;20446;-71
2022/06/08 12:58:19;;;;;;;58.00;2.00;;;;;;;;;;5091562;28;20449;-72
2022/06/08 13:00:49;;;;;;;60.23;2.33;;;;;;;;;;5092054;28;20836;-73
2022/06/08 13:03:18;;;;;;;60.70;2.00;;;;;;;;;;5091837;28;20474;-71
2022/06/08 13:05:45;;;;;;;58.40;2.10;;;;;;;;;;5091952;28;20482;-72
2022/06/08 13:08:14;;;;;;;58.70;2.03;;;;;;;;;;5091434;28;20443;-72
2022/06/08 13:10:42;;;;;;;57.97;2.13;;;;;;;;;;5091829;28;20943;-71
2022/06/08 13:13:17;;;;;;;57.80;2.00;;;;;;;;;;5091833;28;20516;-72
2022/06/08 13:15:45;;;;;;;58.10;2.10;;;;;;;;;;5091837;28;20937;-71
2022/06/08 13:18:14;;;;;;;59.40;2.10;;;;;;;;;;5091223;28;20450;-71
2022/06/08 13:20:41;;;;;;;57.80;1.90;;;;;;;;;;5091802;28;21021;-71
2022/06/08 13:23:10;;;;;;;57.87;1.90;;;;;;;;;;5091706;28;20479;-71
2022/06/08 13:25:39;;;;;;;57.73;1.90;;;;;;;;;;5091690;28;20573;-71
2022/06/08 13:28:11;;;;;;;58.07;1.90;;;;;;;;;;5091018;28;20452;-72
2022/06/08 13:30:39;;;;;;;58.13;2.20;;;;;;;;;;5091991;28;20449;-72
2022/06/08 13:33:56;;;;;;;58.30;2.20;;;;;;;;;;5091784;28;20554;-71
2022/06/08 13:35:54;;;;;;;58.77;2.20;;;;;;;;;;5091516;28;20994;-72
2022/06/08 13:38:21;;;;;;;58.40;2.03;;;;;;;;;;5090669;28;20451;-72
2022/06/08 13:40:48;;;;;;;57.80;1.90;;;;;;;;;;5091939;28;20816;-72
2022/06/08 13:43:16;;;;;;;57.90;2.00;;;;;;;;;;5091446;28;20486;-73
2022/06/08 13:45:44;;;;;;;57.67;2.03;;;;;;;;;;5091503;28;20478;-71
2022/06/08 13:48:15;;;;;;;58.17;2.03;;;;;;;;;;5091033;28;20443;-72
2022/06/08 13:50:44;;;;;;;57.97;2.00;;;;;;;;;;5091616;28;20541;-71
2022/06/08 13:53:14;;;;;;;57.80;2.20;;;;;;;;;;5091329;28;20907;-72
2022/06/08 13:55:43;;;;;;;57.77;1.87;;;;;;;;;;5091588;28;20948;-72
2022/06/08 13:58:13;;;;;;;57.80;2.10;;;;;;;;;;5091046;28;20504;-72
2022/06/08 14:00:44;;;;;;;58.53;2.20;;;;;;;;;;5091844;28;20450;-73
2022/06/08 14:03:15;;;;;;;58.07;1.97;;;;;;;;;;5091398;28;20486;-71
2022/06/08 14:14:00;;;;;;;57.80;1.90;;;;;;;;;;5095089;28;20776;-72
2022/06/08 14:16:27;;;;;;;57.80;2.00;;;;;;;;;;5095303;28;20786;-72
2022/06/08 14:18:57;;;;;;;57.90;2.00;;;;;;;;;;5094489;28;20457;-73
2022/06/08 14:21:24;;;;;;;61.00;2.70;;;;;;;;;;5095023;28;20473;-72
2022/06/08 14:23:54;;;;;;;58.30;2.00;;;;;;;;;;5094908;28;20541;-72
2022/06/08 14:26:23;;;;;;;57.93;2.30;;;;;;;;;;5094795;28;20487;-72
2022/06/08 14:28:51;;;;;;;58.70;2.23;;;;;;;;;;5094403;28;20453;-71
2022/06/08 14:31:19;;;;;;;58.40;1.90;;;;;;;;;;5095013;28;22239;-72
2022/06/08 14:33:47;;;;;;;58.67;2.27;;;;;;;;;;5094891;28;20973;-72
2022/06/08 14:36:17;;;;;;;58.00;2.00;;;;;;;;;;5094821;28;20440;-72
2022/06/08 14:38:46;;;;;;;58.13;2.07;;;;;;;;;;5093864;28;20458;-73
2022/06/08 14:41:13;;;;;;;58.70;2.30;;;;;;;;;;5094772;28;20813;-73
2022/06/08 14:43:40;;;;;;;58.43;2.17;;;;;;;;;;5094659;28;20446;-72
2022/06/08 14:46:07;;;;;;;57.73;2.00;;;;;;;;;;5094538;28;20486;-73
2022/06/08 14:48:38;;;;;;;59.33;2.60;;;;;;;;;;5093758;28;20455;-72
2022/06/08 14:51:05;;;;;;;59.00;2.53;;;;;;;;;;5094445;28;20943;-70
2022/06/08 14:53:34;;;;;;;58.43;2.50;;;;;;;;;;5094171;28;20464;-70
2022/06/08 14:58:46;;;;;;;58.40;2.43;;;;;;;;;;5093858;28;20426;-71
2022/06/08 15:01:16;;;;;;;58.80;2.67;;;;;;;;;;5094264;28;20447;-73
2022/06/08 15:03:43;;;;;;;58.17;2.90;;;;;;;;;;5094053;28;21038;-71
2022/06/08 15:06:11;;;;;;;58.23;2.50;;;;;;;;;;5094278;28;20483;-69
2022/06/08 15:08:39;;;;;;;58.60;2.60;;;;;;;;;;5093595;28;20460;-72
2022/06/08 15:13:55;;;;;;;58.53;2.90;;;;;;;;;;5094162;28;20425;-71